sensor_id;sensor_type;location;lat;lon;timestamp;P1;durP1;ratioP1;P2;durP2;ratioP2
3643;SDS011;1838;50.742;7.158;2023-04-08T00:00:04;40.93;;;17.77;;
3643;SDS011;1838;50.742;7.158;2023-04-08T00:02:31;44.60;;;16.57;;
3643;SDS011;1838;50.742;7.158;2023-04-08T00:04:56;41.73;;;19.47;;
3643;SDS011;1838;50.742;7.158;2023-04-08T00:07:22;43.40;;;18.90;;
3643;SDS011;1838;50.742;7.158;2023-04-08T00:09:47;37.27;;;17.83;;
3643;SDS011;1838;50.742;7.158;2023-04-08T00:12:13;38.40;;;17.40;;
3643;SDS011;1838;50.742;7.158;2023-04-08T00:14:38;39.53;;;18.73;;
3643;SDS011;1838;50.742;7.158;2023-04-08T00:17:05;48.73;;;20.67;;
3643;SDS011;1838;50.742;7.158;2023-04-08T00:19:31;36.23;;;16.70;;
3643;SDS011;1838;50.742;7.158;2023-04-08T00:21:57;39.90;;;18.50;;
3643;SDS011;1838;50.742;7.158;2023-04-08T00:24:23;41.60;;;17.80;;
3643;SDS011;1838;50.742;7.158;2023-04-08T00:26:49;34.83;;;16.50;;
3643;SDS011;1838;50.742;7.158;2023-04-08T00:29:15;46.20;;;18.50;;
3643;SDS011;1838;50.742;7.158;2023-04-08T00:31:41;44.67;;;18.23;;
3643;SDS011;1838;50.742;7.158;2023-04-08T00:34:06;44.07;;;19.10;;
3643;SDS011;1838;50.742;7.158;2023-04-08T00:36:32;37.53;;;17.17;;
3643;SDS011;1838;50.742;7.158;2023-04-08T00:39:00;36.83;;;17.50;;
3643;SDS011;1838;50.742;7.158;2023-04-08T00:41:25;36.50;;;17.30;;
3643;SDS011;1838;50.742;7.158;2023-04-08T00:43:51;52.50;;;19.70;;
3643;SDS011;1838;50.742;7.158;2023-04-08T00:46:18;46.23;;;19.00;;
3643;SDS011;1838;50.742;7.158;2023-04-08T00:48:43;47.27;;;19.00;;
3643;SDS011;1838;50.742;7.158;2023-04-08T00:51:09;43.20;;;18.30;;
3643;SDS011;1838;50.742;7.158;2023-04-08T00:53:35;41.93;;;18.23;;
3643;SDS011;1838;50.742;7.158;2023-04-08T00:56:00;41.87;;;19.23;;
3643;SDS011;1838;50.742;7.158;2023-04-08T00:58:26;59.10;;;19.70;;
3643;SDS011;1838;50.742;7.158;2023-04-08T01:01:06;39.00;;;19.57;;
3643;SDS011;1838;50.742;7.158;2023-04-08T01:06:19;43.30;;;20.13;;
3643;SDS011;1838;50.742;7.158;2023-04-08T01:08:51;43.60;;;19.60;;
3643;SDS011;1838;50.742;7.158;2023-04-08T01:11:17;33.43;;;18.63;;
3643;SDS011;1838;50.742;7.158;2023-04-08T01:13:44;38.07;;;20.87;;
3643;SDS011;1838;50.742;7.158;2023-04-08T01:16:14;44.00;;;23.40;;
3643;SDS011;1838;50.742;7.158;2023-04-08T01:18:42;42.80;;;18.87;;
3643;SDS011;1838;50.742;7.158;2023-04-08T01:21:09;61.70;;;21.57;;
3643;SDS011;1838;50.742;7.158;2023-04-08T01:23:53;47.37;;;20.73;;
3643;SDS011;1838;50.742;7.158;2023-04-08T01:26:28;42.17;;;21.07;;
3643;SDS011;1838;50.742;7.158;2023-04-08T01:28:55;50.70;;;20.40;;
3643;SDS011;1838;50.742;7.158;2023-04-08T01:31:24;46.33;;;18.53;;
3643;SDS011;1838;50.742;7.158;2023-04-08T01:33:50;42.90;;;19.07;;
3643;SDS011;1838;50.742;7.158;2023-04-08T01:36:17;44.80;;;18.73;;
3643;SDS011;1838;50.742;7.158;2023-04-08T01:38:45;39.53;;;17.17;;
3643;SDS011;1838;50.742;7.158;2023-04-08T01:41:12;47.50;;;20.30;;
3643;SDS011;1838;50.742;7.158;2023-04-08T01:43:38;45.43;;;19.47;;
3643;SDS011;1838;50.742;7.158;2023-04-08T01:46:05;37.07;;;18.90;;
3643;SDS011;1838;50.742;7.158;2023-04-08T01:48:34;36.70;;;16.83;;
3643;SDS011;1838;50.742;7.158;2023-04-08T01:51:00;37.93;;;19.07;;
3643;SDS011;1838;50.742;7.158;2023-04-08T01:53:28;36.90;;;17.20;;
3643;SDS011;1838;50.742;7.158;2023-04-08T01:56:00;39.83;;;18.97;;
3643;SDS011;1838;50.742;7.158;2023-04-08T01:58:30;38.80;;;18.17;;
3643;SDS011;1838;50.742;7.158;2023-04-08T02:01:01;39.73;;;17.93;;
3643;SDS011;1838;50.742;7.158;2023-04-08T02:03:30;35.27;;;18.40;;
3643;SDS011;1838;50.742;7.158;2023-04-08T02:05:56;39.37;;;20.23;;
3643;SDS011;1838;50.742;7.158;2023-04-08T02:08:22;48.40;;;20.17;;
3643;SDS011;1838;50.742;7.158;2023-04-08T02:10:47;36.60;;;19.67;;
3643;SDS011;1838;50.742;7.158;2023-04-08T02:13:12;35.43;;;18.17;;
3643;SDS011;1838;50.742;7.158;2023-04-08T02:15:40;38.47;;;18.17;;
3643;SDS011;1838;50.742;7.158;2023-04-08T02:18:31;43.77;;;22.07;;
3643;SDS011;1838;50.742;7.158;2023-04-08T02:21:04;52.17;;;22.30;;
3643;SDS011;1838;50.742;7.158;2023-04-08T02:23:38;46.17;;;22.77;;
3643;SDS011;1838;50.742;7.158;2023-04-08T02:26:06;36.73;;;20.50;;
3643;SDS011;1838;50.742;7.158;2023-04-08T02:28:37;44.10;;;21.00;;
3643;SDS011;1838;50.742;7.158;2023-04-08T02:31:04;36.90;;;19.80;;
3643;SDS011;1838;50.742;7.158;2023-04-08T02:33:32;39.00;;;19.77;;
3643;SDS011;1838;50.742;7.158;2023-04-08T02:36:00;45.40;;;20.60;;
3643;SDS011;1838;50.742;7.158;2023-04-08T02:38:26;40.17;;;18.87;;
3643;SDS011;1838;50.742;7.158;2023-04-08T02:40:54;46.83;;;20.77;;
3643;SDS011;1838;50.742;7.158;2023-04-08T02:43:20;39.80;;;19.83;;
3643;SDS011;1838;50.742;7.158;2023-04-08T02:45:46;41.30;;;21.17;;
3643;SDS011;1838;50.742;7.158;2023-04-08T02:48:11;49.37;;;21.20;;
3643;SDS011;1838;50.742;7.158;2023-04-08T02:50:37;45.07;;;20.23;;
3643;SDS011;1838;50.742;7.158;2023-04-08T02:53:04;38.50;;;19.80;;
3643;SDS011;1838;50.742;7.158;2023-04-08T02:55:29;45.63;;;18.80;;
3643;SDS011;1838;50.742;7.158;2023-04-08T02:57:55;44.60;;;19.70;;
3643;SDS011;1838;50.742;7.158;2023-04-08T03:00:20;47.73;;;21.07;;
3643;SDS011;1838;50.742;7.158;2023-04-08T03:02:46;41.93;;;21.87;;
3643;SDS011;1838;50.742;7.158;2023-04-08T03:05:12;39.07;;;18.73;;
3643;SDS011;1838;50.742;7.158;2023-04-08T03:07:37;39.43;;;19.63;;
3643;SDS011;1838;50.742;7.158;2023-04-08T03:10:03;48.97;;;19.80;;
3643;SDS011;1838;50.742;7.158;2023-04-08T03:12:29;38.70;;;19.00;;
3643;SDS011;1838;50.742;7.158;2023-04-08T03:14:55;43.93;;;19.10;;
3643;SDS011;1838;50.742;7.158;2023-04-08T03:17:20;41.40;;;19.87;;
3643;SDS011;1838;50.742;7.158;2023-04-08T03:19:46;43.27;;;21.90;;
3643;SDS011;1838;50.742;7.158;2023-04-08T03:22:12;39.83;;;19.20;;
3643;SDS011;1838;50.742;7.158;2023-04-08T03:24:37;50.87;;;21.57;;
3643;SDS011;1838;50.742;7.158;2023-04-08T03:27:03;44.10;;;19.43;;
3643;SDS011;1838;50.742;7.158;2023-04-08T03:29:28;41.53;;;20.00;;
3643;SDS011;1838;50.742;7.158;2023-04-08T03:31:54;36.87;;;19.37;;
3643;SDS011;1838;50.742;7.158;2023-04-08T03:34:19;39.33;;;20.20;;
3643;SDS011;1838;50.742;7.158;2023-04-08T03:36:45;38.73;;;19.47;;
3643;SDS011;1838;50.742;7.158;2023-04-08T03:39:11;41.93;;;19.97;;
3643;SDS011;1838;50.742;7.158;2023-04-08T03:41:36;50.17;;;21.67;;
3643;SDS011;1838;50.742;7.158;2023-04-08T03:44:03;47.33;;;21.07;;
3643;SDS011;1838;50.742;7.158;2023-04-08T03:46:28;46.77;;;21.60;;
3643;SDS011;1838;50.742;7.158;2023-04-08T03:48:54;46.97;;;22.97;;
3643;SDS011;1838;50.742;7.158;2023-04-08T03:51:19;47.20;;;21.77;;
3643;SDS011;1838;50.742;7.158;2023-04-08T03:53:45;53.43;;;22.10;;
3643;SDS011;1838;50.742;7.158;2023-04-08T03:56:12;44.80;;;21.93;;
3643;SDS011;1838;50.742;7.158;2023-04-08T03:58:37;51.33;;;21.77;;
3643;SDS011;1838;50.742;7.158;2023-04-08T04:01:03;46.83;;;21.80;;
3643;SDS011;1838;50.742;7.158;2023-04-08T04:03:28;56.37;;;24.10;;
3643;SDS011;1838;50.742;7.158;2023-04-08T04:05:54;48.03;;;23.07;;
3643;SDS011;1838;50.742;7.158;2023-04-08T04:08:20;46.33;;;21.87;;
3643;SDS011;1838;50.742;7.158;2023-04-08T04:10:45;41.10;;;21.30;;
3643;SDS011;1838;50.742;7.158;2023-04-08T04:13:11;58.20;;;24.10;;
3643;SDS011;1838;50.742;7.158;2023-04-08T04:15:37;45.37;;;24.13;;
3643;SDS011;1838;50.742;7.158;2023-04-08T04:18:03;65.43;;;27.57;;
3643;SDS011;1838;50.742;7.158;2023-04-08T04:20:29;55.63;;;24.33;;
3643;SDS011;1838;50.742;7.158;2023-04-08T04:22:55;52.33;;;23.20;;
3643;SDS011;1838;50.742;7.158;2023-04-08T04:25:20;47.50;;;23.80;;
3643;SDS011;1838;50.742;7.158;2023-04-08T04:27:46;56.47;;;24.30;;
3643;SDS011;1838;50.742;7.158;2023-04-08T04:30:12;59.73;;;24.60;;
3643;SDS011;1838;50.742;7.158;2023-04-08T04:32:39;59.90;;;25.63;;
3643;SDS011;1838;50.742;7.158;2023-04-08T04:35:07;55.33;;;25.10;;
3643;SDS011;1838;50.742;7.158;2023-04-08T04:37:36;49.83;;;23.70;;
3643;SDS011;1838;50.742;7.158;2023-04-08T04:40:04;60.10;;;24.33;;
3643;SDS011;1838;50.742;7.158;2023-04-08T04:42:31;63.27;;;26.73;;
3643;SDS011;1838;50.742;7.158;2023-04-08T04:44:57;53.40;;;24.57;;
3643;SDS011;1838;50.742;7.158;2023-04-08T04:47:23;65.80;;;26.23;;
3643;SDS011;1838;50.742;7.158;2023-04-08T04:49:48;60.73;;;26.87;;
3643;SDS011;1838;50.742;7.158;2023-04-08T04:52:14;55.50;;;27.30;;
3643;SDS011;1838;50.742;7.158;2023-04-08T04:54:40;55.43;;;25.37;;
3643;SDS011;1838;50.742;7.158;2023-04-08T04:57:05;65.70;;;27.83;;
3643;SDS011;1838;50.742;7.158;2023-04-08T04:59:31;74.97;;;29.20;;
3643;SDS011;1838;50.742;7.158;2023-04-08T05:01:57;59.30;;;27.37;;
3643;SDS011;1838;50.742;7.158;2023-04-08T05:04:23;62.07;;;27.57;;
3643;SDS011;1838;50.742;7.158;2023-04-08T05:06:48;55.23;;;24.57;;
3643;SDS011;1838;50.742;7.158;2023-04-08T05:09:14;67.53;;;27.93;;
3643;SDS011;1838;50.742;7.158;2023-04-08T05:11:40;67.60;;;25.50;;
3643;SDS011;1838;50.742;7.158;2023-04-08T05:14:05;64.27;;;26.97;;
3643;SDS011;1838;50.742;7.158;2023-04-08T05:16:31;64.10;;;26.80;;
3643;SDS011;1838;50.742;7.158;2023-04-08T05:18:57;62.73;;;28.27;;
3643;SDS011;1838;50.742;7.158;2023-04-08T05:21:23;59.27;;;28.47;;
3643;SDS011;1838;50.742;7.158;2023-04-08T05:23:48;86.90;;;29.47;;
3643;SDS011;1838;50.742;7.158;2023-04-08T05:26:17;68.27;;;25.27;;
3643;SDS011;1838;50.742;7.158;2023-04-08T05:28:48;67.27;;;27.43;;
3643;SDS011;1838;50.742;7.158;2023-04-08T05:31:15;70.77;;;29.03;;
3643;SDS011;1838;50.742;7.158;2023-04-08T05:33:44;65.13;;;28.63;;
3643;SDS011;1838;50.742;7.158;2023-04-08T05:36:10;67.03;;;28.60;;
3643;SDS011;1838;50.742;7.158;2023-04-08T05:38:36;57.03;;;27.80;;
3643;SDS011;1838;50.742;7.158;2023-04-08T05:41:02;55.93;;;27.47;;
3643;SDS011;1838;50.742;7.158;2023-04-08T05:43:28;62.90;;;27.13;;
3643;SDS011;1838;50.742;7.158;2023-04-08T05:45:54;58.33;;;26.80;;
3643;SDS011;1838;50.742;7.158;2023-04-08T05:48:20;60.27;;;26.43;;
3643;SDS011;1838;50.742;7.158;2023-04-08T05:50:45;58.00;;;25.50;;
3643;SDS011;1838;50.742;7.158;2023-04-08T05:53:12;69.30;;;29.10;;
3643;SDS011;1838;50.742;7.158;2023-04-08T05:55:38;75.70;;;31.20;;
3643;SDS011;1838;50.742;7.158;2023-04-08T05:58:04;83.70;;;31.27;;
3643;SDS011;1838;50.742;7.158;2023-04-08T06:00:29;73.40;;;28.47;;
3643;SDS011;1838;50.742;7.158;2023-04-08T06:02:55;68.93;;;30.20;;
3643;SDS011;1838;50.742;7.158;2023-04-08T06:05:21;69.07;;;30.57;;
3643;SDS011;1838;50.742;7.158;2023-04-08T06:07:46;76.80;;;32.27;;
3643;SDS011;1838;50.742;7.158;2023-04-08T06:10:12;77.17;;;31.67;;
3643;SDS011;1838;50.742;7.158;2023-04-08T06:12:37;69.13;;;30.10;;
3643;SDS011;1838;50.742;7.158;2023-04-08T06:15:04;58.50;;;27.53;;
3643;SDS011;1838;50.742;7.158;2023-04-08T06:17:30;71.00;;;27.20;;
3643;SDS011;1838;50.742;7.158;2023-04-08T06:19:56;64.37;;;28.47;;
3643;SDS011;1838;50.742;7.158;2023-04-08T06:22:21;71.17;;;28.00;;
3643;SDS011;1838;50.742;7.158;2023-04-08T06:24:47;57.93;;;26.80;;
3643;SDS011;1838;50.742;7.158;2023-04-08T06:27:13;54.30;;;26.03;;
3643;SDS011;1838;50.742;7.158;2023-04-08T06:29:38;60.73;;;26.50;;
3643;SDS011;1838;50.742;7.158;2023-04-08T06:32:05;58.13;;;26.87;;
3643;SDS011;1838;50.742;7.158;2023-04-08T06:34:31;60.47;;;24.83;;
3643;SDS011;1838;50.742;7.158;2023-04-08T06:36:56;69.00;;;25.97;;
3643;SDS011;1838;50.742;7.158;2023-04-08T06:39:22;56.83;;;25.53;;
3643;SDS011;1838;50.742;7.158;2023-04-08T06:41:47;62.40;;;25.63;;
3643;SDS011;1838;50.742;7.158;2023-04-08T06:44:13;53.93;;;24.87;;
3643;SDS011;1838;50.742;7.158;2023-04-08T06:46:39;63.37;;;27.83;;
3643;SDS011;1838;50.742;7.158;2023-04-08T06:49:05;72.40;;;29.83;;
3643;SDS011;1838;50.742;7.158;2023-04-08T06:51:31;61.03;;;27.80;;
3643;SDS011;1838;50.742;7.158;2023-04-08T06:53:57;71.33;;;29.77;;
3643;SDS011;1838;50.742;7.158;2023-04-08T06:56:22;72.13;;;29.27;;
3643;SDS011;1838;50.742;7.158;2023-04-08T06:58:50;83.37;;;36.93;;
3643;SDS011;1838;50.742;7.158;2023-04-08T07:01:16;77.00;;;34.97;;
3643;SDS011;1838;50.742;7.158;2023-04-08T07:03:41;65.17;;;30.13;;
3643;SDS011;1838;50.742;7.158;2023-04-08T07:06:07;80.17;;;35.93;;
3643;SDS011;1838;50.742;7.158;2023-04-08T07:08:33;62.20;;;25.47;;
3643;SDS011;1838;50.742;7.158;2023-04-08T07:10:58;72.00;;;29.43;;
3643;SDS011;1838;50.742;7.158;2023-04-08T07:13:24;62.03;;;26.50;;
3643;SDS011;1838;50.742;7.158;2023-04-08T07:15:50;74.90;;;29.40;;
3643;SDS011;1838;50.742;7.158;2023-04-08T07:18:16;61.47;;;25.63;;
3643;SDS011;1838;50.742;7.158;2023-04-08T07:20:41;61.13;;;26.33;;
3643;SDS011;1838;50.742;7.158;2023-04-08T07:23:07;69.13;;;26.67;;
3643;SDS011;1838;50.742;7.158;2023-04-08T07:25:32;53.93;;;27.80;;
3643;SDS011;1838;50.742;7.158;2023-04-08T07:28:00;73.43;;;30.97;;
3643;SDS011;1838;50.742;7.158;2023-04-08T07:30:26;67.20;;;36.53;;
3643;SDS011;1838;50.742;7.158;2023-04-08T07:32:51;70.33;;;45.93;;
3643;SDS011;1838;50.742;7.158;2023-04-08T07:35:19;73.83;;;35.23;;
3643;SDS011;1838;50.742;7.158;2023-04-08T07:37:48;61.97;;;26.27;;
3643;SDS011;1838;50.742;7.158;2023-04-08T07:40:15;63.73;;;26.87;;
3643;SDS011;1838;50.742;7.158;2023-04-08T07:42:41;63.27;;;27.93;;
3643;SDS011;1838;50.742;7.158;2023-04-08T07:45:06;60.77;;;26.20;;
3643;SDS011;1838;50.742;7.158;2023-04-08T07:47:32;57.60;;;25.07;;
3643;SDS011;1838;50.742;7.158;2023-04-08T07:49:58;51.57;;;26.80;;
3643;SDS011;1838;50.742;7.158;2023-04-08T07:52:23;52.40;;;24.70;;
3643;SDS011;1838;50.742;7.158;2023-04-08T07:54:50;57.67;;;26.70;;
3643;SDS011;1838;50.742;7.158;2023-04-08T07:57:15;51.20;;;24.30;;
3643;SDS011;1838;50.742;7.158;2023-04-08T07:59:41;49.03;;;23.03;;
3643;SDS011;1838;50.742;7.158;2023-04-08T08:02:06;50.70;;;26.53;;
3643;SDS011;1838;50.742;7.158;2023-04-08T08:04:32;60.50;;;29.03;;
3643;SDS011;1838;50.742;7.158;2023-04-08T08:06:58;55.43;;;26.60;;
3643;SDS011;1838;50.742;7.158;2023-04-08T08:09:23;49.77;;;25.33;;
3643;SDS011;1838;50.742;7.158;2023-04-08T08:11:49;57.83;;;25.37;;
3643;SDS011;1838;50.742;7.158;2023-04-08T08:14:14;57.47;;;26.13;;
3643;SDS011;1838;50.742;7.158;2023-04-08T08:16:40;58.83;;;28.63;;
3643;SDS011;1838;50.742;7.158;2023-04-08T08:19:06;59.23;;;27.97;;
3643;SDS011;1838;50.742;7.158;2023-04-08T08:21:35;54.50;;;26.47;;
3643;SDS011;1838;50.742;7.158;2023-04-08T08:24:01;54.53;;;27.63;;
3643;SDS011;1838;50.742;7.158;2023-04-08T08:26:26;60.17;;;28.20;;
3643;SDS011;1838;50.742;7.158;2023-04-08T08:28:52;62.00;;;29.60;;
3643;SDS011;1838;50.742;7.158;2023-04-08T08:31:18;56.10;;;26.00;;
3643;SDS011;1838;50.742;7.158;2023-04-08T08:33:44;55.50;;;27.67;;
3643;SDS011;1838;50.742;7.158;2023-04-08T08:36:10;50.53;;;26.13;;
3643;SDS011;1838;50.742;7.158;2023-04-08T08:38:36;49.63;;;25.70;;
3643;SDS011;1838;50.742;7.158;2023-04-08T08:41:01;46.93;;;24.27;;
3643;SDS011;1838;50.742;7.158;2023-04-08T08:43:28;46.00;;;23.03;;
3643;SDS011;1838;50.742;7.158;2023-04-08T08:45:57;44.13;;;24.43;;
3643;SDS011;1838;50.742;7.158;2023-04-08T08:48:23;50.43;;;25.93;;
3643;SDS011;1838;50.742;7.158;2023-04-08T08:50:49;50.40;;;26.00;;
3643;SDS011;1838;50.742;7.158;2023-04-08T08:53:15;59.57;;;28.50;;
3643;SDS011;1838;50.742;7.158;2023-04-08T08:55:40;46.83;;;25.00;;
3643;SDS011;1838;50.742;7.158;2023-04-08T08:58:06;51.03;;;26.50;;
3643;SDS011;1838;50.742;7.158;2023-04-08T09:03:12;50.70;;;26.83;;
3643;SDS011;1838;50.742;7.158;2023-04-08T09:08:24;52.03;;;27.00;;
3643;SDS011;1838;50.742;7.158;2023-04-08T09:10:51;52.80;;;26.53;;
3643;SDS011;1838;50.742;7.158;2023-04-08T09:13:17;50.17;;;25.60;;
3643;SDS011;1838;50.742;7.158;2023-04-08T09:18:33;43.50;;;23.93;;
3643;SDS011;1838;50.742;7.158;2023-04-08T09:20:59;47.57;;;24.00;;
3643;SDS011;1838;50.742;7.158;2023-04-08T09:26:18;40.47;;;23.63;;
3643;SDS011;1838;50.742;7.158;2023-04-08T09:31:23;42.67;;;23.00;;
3643;SDS011;1838;50.742;7.158;2023-04-08T09:33:51;47.60;;;26.97;;
3643;SDS011;1838;50.742;7.158;2023-04-08T09:36:18;47.20;;;24.97;;
3643;SDS011;1838;50.742;7.158;2023-04-08T09:38:44;48.60;;;25.43;;
3643;SDS011;1838;50.742;7.158;2023-04-08T09:41:14;47.97;;;24.77;;
3643;SDS011;1838;50.742;7.158;2023-04-08T09:43:47;49.73;;;25.10;;
3643;SDS011;1838;50.742;7.158;2023-04-08T09:46:24;46.60;;;23.90;;
3643;SDS011;1838;50.742;7.158;2023-04-08T09:49:00;46.80;;;24.73;;
3643;SDS011;1838;50.742;7.158;2023-04-08T09:51:31;51.13;;;26.50;;
3643;SDS011;1838;50.742;7.158;2023-04-08T09:54:01;46.60;;;25.37;;
3643;SDS011;1838;50.742;7.158;2023-04-08T09:56:33;53.73;;;26.60;;
3643;SDS011;1838;50.742;7.158;2023-04-08T09:59:08;55.83;;;27.13;;
3643;SDS011;1838;50.742;7.158;2023-04-08T10:01:39;54.50;;;27.00;;
3643;SDS011;1838;50.742;7.158;2023-04-08T10:04:13;50.70;;;28.27;;
3643;SDS011;1838;50.742;7.158;2023-04-08T10:06:44;49.40;;;26.73;;
3643;SDS011;1838;50.742;7.158;2023-04-08T10:09:18;53.83;;;25.87;;
3643;SDS011;1838;50.742;7.158;2023-04-08T10:11:45;50.37;;;26.30;;
3643;SDS011;1838;50.742;7.158;2023-04-08T10:14:11;53.00;;;28.70;;
3643;SDS011;1838;50.742;7.158;2023-04-08T10:16:36;57.60;;;25.77;;
3643;SDS011;1838;50.742;7.158;2023-04-08T10:19:02;54.37;;;27.50;;
3643;SDS011;1838;50.742;7.158;2023-04-08T10:22:01;53.03;;;25.60;;
3643;SDS011;1838;50.742;7.158;2023-04-08T10:24:26;48.00;;;24.90;;
3643;SDS011;1838;50.742;7.158;2023-04-08T10:26:52;49.33;;;25.43;;
3643;SDS011;1838;50.742;7.158;2023-04-08T10:31:43;43.57;;;24.73;;
3643;SDS011;1838;50.742;7.158;2023-04-08T10:34:22;48.40;;;25.33;;
3643;SDS011;1838;50.742;7.158;2023-04-08T10:36:50;48.87;;;25.20;;
3643;SDS011;1838;50.742;7.158;2023-04-08T10:39:16;47.90;;;24.53;;
3643;SDS011;1838;50.742;7.158;2023-04-08T10:41:45;48.70;;;23.97;;
3643;SDS011;1838;50.742;7.158;2023-04-08T10:44:18;42.07;;;23.50;;
3643;SDS011;1838;50.742;7.158;2023-04-08T10:46:48;48.80;;;23.63;;
3643;SDS011;1838;50.742;7.158;2023-04-08T10:49:15;42.80;;;22.37;;
3643;SDS011;1838;50.742;7.158;2023-04-08T10:51:44;40.80;;;23.00;;
3643;SDS011;1838;50.742;7.158;2023-04-08T10:54:11;50.30;;;24.60;;
3643;SDS011;1838;50.742;7.158;2023-04-08T10:56:44;45.47;;;22.97;;
3643;SDS011;1838;50.742;7.158;2023-04-08T10:59:12;50.70;;;24.73;;
3643;SDS011;1838;50.742;7.158;2023-04-08T11:01:40;54.17;;;25.47;;
3643;SDS011;1838;50.742;7.158;2023-04-08T11:04:15;49.23;;;27.10;;
3643;SDS011;1838;50.742;7.158;2023-04-08T11:06:47;49.90;;;26.80;;
3643;SDS011;1838;50.742;7.158;2023-04-08T11:09:13;58.80;;;27.53;;
3643;SDS011;1838;50.742;7.158;2023-04-08T11:11:40;53.50;;;28.67;;
3643;SDS011;1838;50.742;7.158;2023-04-08T11:14:07;47.90;;;27.37;;
3643;SDS011;1838;50.742;7.158;2023-04-08T11:16:33;55.40;;;27.63;;
3643;SDS011;1838;50.742;7.158;2023-04-08T11:19:01;53.87;;;27.80;;
3643;SDS011;1838;50.742;7.158;2023-04-08T11:21:29;60.90;;;27.80;;
3643;SDS011;1838;50.742;7.158;2023-04-08T11:24:10;60.03;;;28.07;;
3643;SDS011;1838;50.742;7.158;2023-04-08T11:26:36;56.50;;;28.00;;
3643;SDS011;1838;50.742;7.158;2023-04-08T11:29:02;52.50;;;26.33;;
3643;SDS011;1838;50.742;7.158;2023-04-08T11:31:28;58.13;;;26.90;;
3643;SDS011;1838;50.742;7.158;2023-04-08T11:33:54;56.70;;;26.53;;
3643;SDS011;1838;50.742;7.158;2023-04-08T11:36:20;59.60;;;28.80;;
3643;SDS011;1838;50.742;7.158;2023-04-08T11:38:46;58.90;;;27.37;;
3643;SDS011;1838;50.742;7.158;2023-04-08T11:41:12;62.97;;;28.27;;
3643;SDS011;1838;50.742;7.158;2023-04-08T11:43:38;57.23;;;27.70;;
3643;SDS011;1838;50.742;7.158;2023-04-08T11:46:08;60.13;;;28.03;;
3643;SDS011;1838;50.742;7.158;2023-04-08T11:48:35;62.83;;;28.90;;
3643;SDS011;1838;50.742;7.158;2023-04-08T11:51:03;60.73;;;28.47;;
3643;SDS011;1838;50.742;7.158;2023-04-08T11:53:36;59.73;;;25.77;;
3643;SDS011;1838;50.742;7.158;2023-04-08T11:56:14;62.23;;;27.90;;
3643;SDS011;1838;50.742;7.158;2023-04-08T11:58:44;67.60;;;30.37;;
3643;SDS011;1838;50.742;7.158;2023-04-08T12:01:10;63.33;;;28.70;;
3643;SDS011;1838;50.742;7.158;2023-04-08T12:03:36;53.80;;;26.43;;
3643;SDS011;1838;50.742;7.158;2023-04-08T12:06:01;72.03;;;30.10;;
3643;SDS011;1838;50.742;7.158;2023-04-08T12:08:28;66.50;;;31.40;;
3643;SDS011;1838;50.742;7.158;2023-04-08T12:10:54;74.67;;;35.13;;
3643;SDS011;1838;50.742;7.158;2023-04-08T12:13:19;69.77;;;30.30;;
3643;SDS011;1838;50.742;7.158;2023-04-08T12:15:45;77.10;;;33.27;;
3643;SDS011;1838;50.742;7.158;2023-04-08T12:18:11;66.33;;;30.50;;
3643;SDS011;1838;50.742;7.158;2023-04-08T12:20:36;68.73;;;31.03;;
3643;SDS011;1838;50.742;7.158;2023-04-08T12:23:02;66.70;;;33.50;;
3643;SDS011;1838;50.742;7.158;2023-04-08T12:25:27;65.80;;;30.03;;
3643;SDS011;1838;50.742;7.158;2023-04-08T12:27:53;65.73;;;29.30;;
3643;SDS011;1838;50.742;7.158;2023-04-08T12:30:18;62.03;;;30.53;;
3643;SDS011;1838;50.742;7.158;2023-04-08T12:32:45;69.20;;;30.27;;
3643;SDS011;1838;50.742;7.158;2023-04-08T12:35:11;66.30;;;30.70;;
3643;SDS011;1838;50.742;7.158;2023-04-08T12:37:37;64.33;;;29.27;;
3643;SDS011;1838;50.742;7.158;2023-04-08T12:40:02;72.17;;;29.67;;
3643;SDS011;1838;50.742;7.158;2023-04-08T12:42:28;53.20;;;26.87;;
3643;SDS011;1838;50.742;7.158;2023-04-08T12:44:53;56.67;;;27.40;;
3643;SDS011;1838;50.742;7.158;2023-04-08T12:47:19;52.13;;;25.03;;
3643;SDS011;1838;50.742;7.158;2023-04-08T12:49:45;37.60;;;20.10;;
3643;SDS011;1838;50.742;7.158;2023-04-08T12:52:11;36.47;;;20.67;;
3643;SDS011;1838;50.742;7.158;2023-04-08T12:54:37;35.97;;;20.00;;
3643;SDS011;1838;50.742;7.158;2023-04-08T12:57:02;31.20;;;17.90;;
3643;SDS011;1838;50.742;7.158;2023-04-08T12:59:28;37.87;;;21.03;;
3643;SDS011;1838;50.742;7.158;2023-04-08T13:01:54;48.17;;;21.93;;
3643;SDS011;1838;50.742;7.158;2023-04-08T13:04:19;48.70;;;22.33;;
3643;SDS011;1838;50.742;7.158;2023-04-08T13:06:45;41.13;;;20.60;;
3643;SDS011;1838;50.742;7.158;2023-04-08T13:09:10;41.13;;;20.73;;
3643;SDS011;1838;50.742;7.158;2023-04-08T13:11:36;40.73;;;20.60;;
3643;SDS011;1838;50.742;7.158;2023-04-08T13:14:02;38.17;;;22.20;;
3643;SDS011;1838;50.742;7.158;2023-04-08T13:16:27;35.90;;;19.83;;
3643;SDS011;1838;50.742;7.158;2023-04-08T13:18:53;38.10;;;20.73;;
3643;SDS011;1838;50.742;7.158;2023-04-08T13:21:18;35.03;;;20.30;;
3643;SDS011;1838;50.742;7.158;2023-04-08T13:23:44;39.83;;;20.47;;
3643;SDS011;1838;50.742;7.158;2023-04-08T13:26:10;42.47;;;21.60;;
3643;SDS011;1838;50.742;7.158;2023-04-08T13:28:36;37.10;;;21.90;;
3643;SDS011;1838;50.742;7.158;2023-04-08T13:31:01;38.90;;;21.83;;
3643;SDS011;1838;50.742;7.158;2023-04-08T13:33:27;46.33;;;22.37;;
3643;SDS011;1838;50.742;7.158;2023-04-08T13:35:53;43.87;;;23.33;;
3643;SDS011;1838;50.742;7.158;2023-04-08T13:38:18;38.50;;;20.97;;
3643;SDS011;1838;50.742;7.158;2023-04-08T13:40:44;46.33;;;22.60;;
3643;SDS011;1838;50.742;7.158;2023-04-08T13:43:09;46.30;;;23.33;;
3643;SDS011;1838;50.742;7.158;2023-04-08T13:45:34;44.50;;;24.73;;
3643;SDS011;1838;50.742;7.158;2023-04-08T13:48:00;46.60;;;23.70;;
3643;SDS011;1838;50.742;7.158;2023-04-08T13:50:26;47.63;;;24.03;;
3643;SDS011;1838;50.742;7.158;2023-04-08T13:52:51;45.00;;;25.37;;
3643;SDS011;1838;50.742;7.158;2023-04-08T13:55:17;51.90;;;26.13;;
3643;SDS011;1838;50.742;7.158;2023-04-08T13:57:42;51.27;;;24.73;;
3643;SDS011;1838;50.742;7.158;2023-04-08T14:00:08;46.20;;;24.63;;
3643;SDS011;1838;50.742;7.158;2023-04-08T14:02:34;43.97;;;24.77;;
3643;SDS011;1838;50.742;7.158;2023-04-08T14:05:00;45.63;;;25.17;;
3643;SDS011;1838;50.742;7.158;2023-04-08T14:07:25;33.70;;;17.43;;
3643;SDS011;1838;50.742;7.158;2023-04-08T14:09:51;26.70;;;14.03;;
3643;SDS011;1838;50.742;7.158;2023-04-08T14:12:16;32.03;;;16.03;;
3643;SDS011;1838;50.742;7.158;2023-04-08T14:14:42;27.67;;;18.27;;
3643;SDS011;1838;50.742;7.158;2023-04-08T14:17:07;31.57;;;17.90;;
3643;SDS011;1838;50.742;7.158;2023-04-08T14:19:33;36.53;;;20.70;;
3643;SDS011;1838;50.742;7.158;2023-04-08T14:21:59;29.20;;;16.00;;
3643;SDS011;1838;50.742;7.158;2023-04-08T14:24:25;25.00;;;15.17;;
3643;SDS011;1838;50.742;7.158;2023-04-08T14:26:51;26.80;;;15.57;;
3643;SDS011;1838;50.742;7.158;2023-04-08T14:29:16;24.63;;;14.03;;
3643;SDS011;1838;50.742;7.158;2023-04-08T14:31:41;23.23;;;13.20;;
3643;SDS011;1838;50.742;7.158;2023-04-08T14:34:07;23.33;;;14.17;;
3643;SDS011;1838;50.742;7.158;2023-04-08T14:36:32;22.83;;;13.23;;
3643;SDS011;1838;50.742;7.158;2023-04-08T14:38:58;29.03;;;15.60;;
3643;SDS011;1838;50.742;7.158;2023-04-08T14:41:24;26.53;;;14.30;;
3643;SDS011;1838;50.742;7.158;2023-04-08T14:43:51;26.87;;;14.70;;
3643;SDS011;1838;50.742;7.158;2023-04-08T14:46:17;28.87;;;14.27;;
3643;SDS011;1838;50.742;7.158;2023-04-08T14:48:42;21.60;;;12.33;;
3643;SDS011;1838;50.742;7.158;2023-04-08T14:51:08;21.27;;;12.80;;
3643;SDS011;1838;50.742;7.158;2023-04-08T14:53:33;25.97;;;13.70;;
3643;SDS011;1838;50.742;7.158;2023-04-08T14:55:59;25.20;;;12.90;;
3643;SDS011;1838;50.742;7.158;2023-04-08T14:58:25;22.03;;;12.40;;
3643;SDS011;1838;50.742;7.158;2023-04-08T15:00:50;28.10;;;15.33;;
3643;SDS011;1838;50.742;7.158;2023-04-08T15:03:16;28.87;;;15.30;;